createdAt,value
2022-09-01T00:00:37.262Z,15.11
2022-09-01T00:01:37.227Z,15.09
2022-09-01T00:02:37.247Z,15.09
2022-09-01T00:03:37.279Z,15.08
2022-09-01T00:04:37.280Z,15.13
2022-09-01T00:05:37.221Z,15.13
2022-09-01T00:06:37.414Z,15.12
2022-09-01T00:07:37.134Z,15.08
2022-09-01T00:08:37.125Z,15.06
2022-09-01T00:09:37.122Z,15.01
2022-09-01T00:10:37.092Z,15.01
2022-09-01T00:11:37.107Z,15.02
2022-09-01T00:12:37.091Z,15.09
2022-09-01T00:13:37.052Z,15.12
2022-09-01T00:14:40.985Z,15.11
2022-09-01T00:15:37.079Z,15.09
2022-09-01T00:16:38.905Z,15.08
2022-09-01T00:17:37.018Z,15.05
2022-09-01T00:18:36.985Z,15.06
2022-09-01T00:19:36.997Z,15.05
2022-09-01T00:20:37.062Z,15.08
2022-09-01T00:21:36.961Z,15.06
2022-09-01T00:22:37.899Z,15.09
2022-09-01T00:23:36.916Z,15.06
2022-09-01T00:24:36.917Z,15.03
2022-09-01T00:25:36.906Z,15.03
2022-09-01T00:26:36.925Z,15.08
2022-09-01T00:27:36.865Z,15.08
2022-09-01T00:28:37.526Z,15.06
2022-09-01T00:29:36.857Z,15.03
2022-09-01T00:30:36.890Z,15.03
2022-09-01T00:31:36.837Z,15.01
2022-09-01T00:32:36.807Z,14.95
2022-09-01T00:33:36.797Z,14.93
2022-09-01T00:34:36.788Z,14.95
2022-09-01T00:35:37.293Z,14.98
2022-09-01T00:36:36.753Z,14.95
2022-09-01T00:37:36.797Z,14.93
2022-09-01T00:38:36.737Z,14.94
2022-09-01T00:39:36.724Z,14.90
2022-09-01T00:40:36.790Z,14.90
2022-09-01T00:41:36.726Z,14.88
2022-09-01T00:42:36.715Z,14.84
2022-09-01T00:43:36.663Z,14.84
2022-09-01T00:44:36.652Z,14.84
2022-09-01T00:45:36.634Z,14.81
2022-09-01T00:46:36.665Z,14.75
2022-09-01T00:47:37.676Z,14.78
2022-09-01T00:48:36.600Z,14.80
2022-09-01T00:49:36.931Z,14.74
2022-09-01T00:50:36.608Z,14.74
2022-09-01T00:51:36.597Z,14.69
2022-09-01T00:52:36.543Z,14.64
2022-09-01T00:53:36.796Z,14.61
2022-09-01T00:54:36.544Z,14.62
2022-09-01T00:55:36.500Z,14.57
2022-09-01T00:56:36.540Z,14.56
2022-09-01T00:57:36.496Z,14.53
2022-09-01T00:58:36.485Z,14.52
2022-09-01T00:59:36.456Z,14.49
2022-09-01T01:00:36.439Z,14.47
2022-09-01T01:01:36.480Z,14.39
2022-09-01T01:02:36.500Z,14.35
2022-09-01T01:03:36.391Z,14.32
2022-09-01T01:04:36.400Z,14.35
2022-09-01T01:05:36.365Z,14.37
2022-09-01T01:06:36.369Z,14.37
2022-09-01T01:07:36.354Z,14.34
2022-09-01T01:08:36.344Z,14.31
2022-09-01T01:09:40.311Z,14.27
2022-09-01T01:10:36.320Z,14.28
2022-09-01T01:11:36.303Z,14.31
2022-09-01T01:12:36.298Z,14.28
2022-09-01T01:13:36.297Z,14.19
2022-09-01T01:14:36.283Z,14.21
2022-09-01T01:15:36.268Z,14.20
2022-09-01T01:16:36.302Z,14.19
2022-09-01T01:17:36.219Z,14.14
2022-09-01T01:18:36.246Z,14.14
2022-09-01T01:19:39.028Z,14.10
2022-09-01T01:20:36.198Z,14.07
2022-09-01T01:21:36.167Z,14.04
2022-09-01T01:22:36.173Z,14.02
2022-09-01T01:23:36.220Z,14.06
2022-09-01T01:24:36.139Z,14.06
2022-09-01T01:25:36.124Z,14.07
2022-09-01T01:26:36.103Z,14.09
2022-09-01T01:27:38.095Z,14.10
2022-09-01T01:28:37.131Z,14.10
2022-09-01T01:29:36.083Z,14.07
2022-09-01T01:30:36.143Z,14.09
2022-09-01T01:31:36.305Z,14.06
2022-09-01T01:32:36.028Z,14.09
2022-09-01T01:33:36.007Z,14.07
2022-09-01T01:34:36.017Z,14.10
2022-09-01T01:35:35.986Z,14.09
2022-09-01T01:36:35.968Z,14.10
2022-09-01T01:37:35.970Z,14.09
2022-09-01T01:38:35.988Z,14.07
2022-09-01T01:39:35.947Z,14.02
2022-09-01T01:40:36.234Z,14.04
2022-09-01T01:41:35.909Z,14.01
2022-09-01T01:42:35.900Z,13.98
2022-09-01T01:43:35.880Z,13.98
2022-09-01T01:44:35.944Z,13.92
2022-09-01T01:45:35.891Z,13.95
2022-09-01T01:46:35.891Z,13.95
2022-09-01T01:47:35.871Z,13.96
2022-09-01T01:48:35.895Z,13.96
2022-09-01T01:49:35.859Z,13.95
2022-09-01T01:50:35.983Z,13.95
2022-09-01T01:51:35.790Z,13.96
2022-09-01T01:52:35.833Z,13.94
2022-09-01T01:53:35.760Z,13.91
2022-09-01T01:54:35.776Z,13.89
2022-09-01T01:55:35.746Z,13.89
2022-09-01T01:56:35.754Z,13.88
2022-09-01T01:57:39.520Z,13.84
2022-09-01T01:58:35.691Z,13.87
2022-09-01T01:59:35.720Z,13.83
2022-09-01T02:00:35.661Z,13.84
2022-09-01T02:01:35.705Z,13.79
2022-09-01T02:02:35.653Z,13.80
2022-09-01T02:03:35.654Z,13.81
2022-09-01T02:04:35.651Z,13.77
2022-09-01T02:05:35.648Z,13.73
2022-09-01T02:06:35.633Z,13.70
2022-09-01T02:07:35.824Z,13.69
2022-09-01T02:08:35.571Z,13.67
2022-09-01T02:09:35.584Z,13.63
2022-09-01T02:10:35.540Z,13.67
2022-09-01T02:11:35.537Z,13.65
2022-09-01T02:12:35.506Z,13.65
2022-09-01T02:13:35.498Z,13.65
2022-09-01T02:14:35.499Z,13.63
2022-09-01T02:15:35.519Z,13.61
2022-09-01T02:16:35.554Z,13.59
2022-09-01T02:17:35.462Z,13.56
2022-09-01T02:18:35.469Z,13.56
2022-09-01T02:19:35.440Z,13.52
2022-09-01T02:20:35.408Z,13.51
2022-09-01T02:21:35.390Z,13.41
2022-09-01T02:22:35.394Z,13.40
2022-09-01T02:23:35.392Z,13.36
2022-09-01T02:24:35.371Z,13.36
2022-09-01T02:25:35.362Z,13.36
2022-09-01T02:26:35.343Z,13.36
2022-09-01T02:27:35.333Z,13.33
2022-09-01T02:28:35.997Z,13.33
2022-09-01T02:29:38.632Z,13.30
2022-09-01T02:30:36.307Z,13.29
2022-09-01T02:31:35.292Z,13.29
2022-09-01T02:32:35.284Z,13.25
2022-09-01T02:33:35.248Z,13.25
2022-09-01T02:34:35.902Z,13.27
2022-09-01T02:35:35.271Z,13.21
2022-09-01T02:36:35.282Z,13.17
2022-09-01T02:37:35.191Z,13.15
2022-09-01T02:38:35.189Z,13.14
2022-09-01T02:39:35.179Z,13.14
2022-09-01T02:40:35.284Z,13.11
2022-09-01T02:41:35.154Z,13.09
2022-09-01T02:42:35.198Z,13.11
2022-09-01T02:43:36.068Z,13.09
2022-09-01T02:44:39.473Z,13.06
2022-09-01T02:45:36.116Z,13.03
2022-09-01T02:46:35.391Z,13.00
2022-09-01T02:47:35.091Z,13.00
2022-09-01T02:48:35.123Z,13.00
2022-09-01T02:49:35.172Z,12.99
2022-09-01T02:50:35.021Z,12.99
2022-09-01T02:51:35.024Z,12.99
2022-09-01T02:52:38.855Z,13.02
2022-09-01T02:53:34.980Z,12.97
2022-09-01T02:54:34.986Z,12.95
2022-09-01T02:55:34.973Z,12.93
2022-09-01T02:56:34.992Z,12.88
2022-09-01T02:57:34.928Z,12.87
2022-09-01T02:58:34.922Z,12.87
2022-09-01T02:59:34.942Z,12.85
2022-09-01T03:00:34.901Z,12.82
2022-09-01T03:01:34.966Z,12.79
2022-09-01T03:02:34.878Z,12.84
2022-09-01T03:03:34.926Z,12.84
2022-09-01T03:04:34.977Z,12.85
2022-09-01T03:05:34.830Z,12.84
2022-09-01T03:06:35.083Z,12.82
2022-09-01T03:07:34.805Z,12.84
2022-09-01T03:08:34.790Z,12.85
2022-09-01T03:09:34.805Z,12.79
2022-09-01T03:10:34.809Z,12.79
2022-09-01T03:11:34.757Z,12.77
2022-09-01T03:12:34.731Z,12.77
2022-09-01T03:13:34.739Z,12.75
2022-09-01T03:14:34.748Z,12.75
2022-09-01T03:15:34.988Z,12.74
2022-09-01T03:16:34.759Z,12.74
2022-09-01T03:17:34.712Z,12.74
2022-09-01T03:18:34.647Z,12.75
2022-09-01T03:19:34.666Z,12.75
2022-09-01T03:20:34.634Z,12.69
2022-09-01T03:21:34.753Z,12.69
2022-09-01T03:22:34.617Z,12.70
2022-09-01T03:23:34.645Z,12.67
2022-09-01T03:24:34.574Z,12.64
2022-09-01T03:25:34.577Z,12.60
2022-09-01T03:26:34.598Z,12.60
2022-09-01T03:27:34.870Z,12.57
2022-09-01T03:28:34.534Z,12.60
2022-09-01T03:29:36.281Z,12.59
2022-09-01T03:30:34.524Z,12.57
2022-09-01T03:31:34.599Z,12.56
2022-09-01T03:32:34.541Z,12.56
2022-09-01T03:33:34.477Z,12.52
2022-09-01T03:34:34.451Z,12.54
2022-09-01T03:35:34.445Z,12.56
2022-09-01T03:36:34.429Z,12.59
2022-09-01T03:37:34.422Z,12.56
2022-09-01T03:38:34.390Z,12.54
2022-09-01T03:39:34.389Z,12.54
2022-09-01T03:40:34.476Z,12.56
2022-09-01T03:41:34.391Z,12.57
2022-09-01T03:42:34.613Z,12.57
2022-09-01T03:43:36.067Z,12.56
2022-09-01T03:44:34.328Z,12.56
2022-09-01T03:45:34.380Z,12.54
2022-09-01T03:46:36.820Z,12.52
2022-09-01T03:47:34.281Z,12.51
2022-09-01T03:48:34.273Z,12.52
2022-09-01T03:49:34.256Z,12.51
2022-09-01T03:50:34.241Z,12.54
2022-09-01T03:51:34.241Z,12.51
2022-09-01T03:52:34.206Z,12.51
2022-09-01T03:53:34.265Z,12.46
2022-09-01T03:54:34.191Z,12.45
2022-09-01T03:55:34.173Z,12.45
2022-09-01T03:56:34.173Z,12.44
2022-09-01T03:57:34.152Z,12.44
2022-09-01T03:58:34.126Z,12.45
2022-09-01T03:59:34.201Z,12.46
2022-09-01T04:00:34.109Z,12.44
2022-09-01T04:01:34.206Z,12.42
2022-09-01T04:02:34.111Z,12.39
2022-09-01T04:03:34.114Z,12.39
2022-09-01T04:04:34.059Z,12.38
2022-09-01T04:05:34.082Z,12.33
2022-09-01T04:06:34.063Z,12.34
2022-09-01T04:07:34.028Z,12.33
2022-09-01T04:08:33.996Z,12.33
2022-09-01T04:09:34.036Z,12.34
2022-09-01T04:10:33.987Z,12.33
2022-09-01T04:11:33.993Z,12.26
2022-09-01T04:12:33.954Z,12.27
2022-09-01T04:13:33.949Z,12.29
2022-09-01T04:14:33.976Z,12.31
2022-09-01T04:15:33.915Z,12.29
2022-09-01T04:16:34.031Z,12.27
2022-09-01T04:17:33.887Z,12.26
2022-09-01T04:18:33.882Z,12.24
2022-09-01T04:19:33.910Z,12.21
2022-09-01T04:20:33.853Z,12.23
2022-09-01T04:21:34.622Z,12.21
2022-09-01T04:22:33.831Z,12.23
2022-09-01T04:23:33.836Z,12.23
2022-09-01T04:24:33.855Z,12.20
2022-09-01T04:25:33.792Z,12.19
2022-09-01T04:26:34.100Z,12.19
2022-09-01T04:27:33.770Z,12.16
2022-09-01T04:28:33.736Z,12.19
2022-09-01T04:29:33.760Z,12.13
2022-09-01T04:30:33.752Z,12.12
2022-09-01T04:31:34.110Z,12.11
2022-09-01T04:32:33.730Z,12.12
2022-09-01T04:33:33.681Z,12.13
2022-09-01T04:34:33.662Z,12.12
2022-09-01T04:35:37.764Z,12.15
2022-09-01T04:36:33.706Z,12.13
2022-09-01T04:37:33.643Z,12.12
2022-09-01T04:38:33.634Z,12.16
2022-09-01T04:39:33.640Z,12.15
2022-09-01T04:40:33.748Z,12.16
2022-09-01T04:41:33.587Z,12.13
2022-09-01T04:42:33.571Z,12.16
2022-09-01T04:43:33.549Z,12.15
2022-09-01T04:44:33.545Z,12.15
2022-09-01T04:45:33.664Z,12.13
2022-09-01T04:46:33.534Z,12.13
2022-09-01T04:47:36.114Z,12.16
2022-09-01T04:48:33.498Z,12.13
2022-09-01T04:49:33.476Z,12.12
2022-09-01T04:50:34.131Z,12.12
2022-09-01T04:51:33.517Z,12.16
2022-09-01T04:52:37.327Z,12.20
2022-09-01T04:53:33.421Z,12.12
2022-09-01T04:54:33.408Z,12.12
2022-09-01T04:55:33.396Z,12.13
2022-09-01T04:56:34.353Z,12.11
2022-09-01T04:57:33.390Z,12.09
2022-09-01T04:58:33.428Z,12.08
2022-09-01T04:59:33.338Z,12.05
2022-09-01T05:00:33.357Z,12.04
2022-09-01T05:01:33.374Z,12.04
2022-09-01T05:02:33.451Z,12.01
2022-09-01T05:03:33.335Z,12.01
2022-09-01T05:04:33.285Z,12.05
2022-09-01T05:05:33.266Z,12.01
2022-09-01T05:06:33.288Z,12.04
2022-09-01T05:07:33.251Z,12.06
2022-09-01T05:08:33.233Z,12.09
2022-09-01T05:09:33.244Z,12.05
2022-09-01T05:10:33.195Z,12.05
2022-09-01T05:11:33.197Z,12.04
2022-09-01T05:12:33.175Z,12.05
2022-09-01T05:13:33.166Z,12.05
2022-09-01T05:14:33.158Z,12.06
2022-09-01T05:15:33.179Z,12.08
2022-09-01T05:16:33.136Z,12.06
2022-09-01T05:17:33.226Z,12.06
2022-09-01T05:18:33.323Z,12.09
2022-09-01T05:19:33.190Z,12.09
2022-09-01T05:20:33.145Z,12.12
2022-09-01T05:21:33.091Z,12.13
2022-09-01T05:22:33.071Z,12.19
2022-09-01T05:23:33.034Z,12.16
2022-09-01T05:24:33.011Z,12.19
2022-09-01T05:25:33.010Z,12.21
2022-09-01T05:26:33.000Z,12.27
2022-09-01T05:27:32.998Z,12.30
2022-09-01T05:28:36.719Z,12.33
2022-09-01T05:29:32.969Z,12.34
2022-09-01T05:30:33.591Z,12.37
2022-09-01T05:31:32.990Z,12.39
2022-09-01T05:32:32.970Z,12.42
2022-09-01T05:33:32.912Z,12.46
2022-09-01T05:34:32.889Z,12.49
2022-09-01T05:35:33.228Z,12.48
2022-09-01T05:36:32.863Z,12.54
2022-09-01T05:37:32.882Z,12.60
2022-09-01T05:38:32.850Z,12.64
2022-09-01T05:39:32.870Z,12.69
2022-09-01T05:40:32.845Z,12.74
2022-09-01T05:41:32.829Z,12.77
2022-09-01T05:42:32.819Z,12.84
2022-09-01T05:43:32.796Z,12.88
2022-09-01T05:44:32.765Z,12.95
2022-09-01T05:45:44.901Z,12.97
2022-09-01T05:46:33.765Z,13.06
2022-09-01T05:47:32.736Z,13.11
2022-09-01T05:48:32.739Z,13.20
2022-09-01T05:49:32.700Z,13.24
2022-09-01T05:50:32.683Z,13.30
2022-09-01T05:51:50.252Z,13.38
2022-09-01T05:52:33.672Z,13.40
2022-09-01T05:53:32.642Z,13.41
2022-09-01T05:54:32.671Z,13.47
2022-09-01T05:55:32.617Z,13.55
2022-09-01T05:56:32.602Z,13.56
2022-09-01T05:57:35.014Z,13.61
2022-09-01T05:59:33.586Z,13.73
2022-09-01T06:00:32.554Z,13.76
2022-09-01T06:01:32.589Z,13.74
2022-09-01T06:02:32.598Z,13.81
2022-09-01T06:03:32.567Z,13.87
2022-09-01T06:04:33.553Z,13.91
2022-09-01T06:05:32.499Z,13.92
2022-09-01T06:06:43.947Z,13.98
2022-09-01T06:07:33.476Z,14.01
2022-09-01T06:08:32.449Z,14.09
2022-09-01T06:09:32.482Z,14.12
2022-09-01T06:10:32.428Z,14.17
2022-09-01T06:11:32.491Z,14.20
2022-09-01T06:12:32.418Z,14.24
2022-09-01T06:13:32.423Z,14.27
2022-09-01T06:14:32.379Z,14.28
2022-09-01T06:15:32.358Z,14.31
2022-09-01T06:16:32.422Z,14.38
2022-09-01T06:17:34.695Z,14.44
2022-09-01T06:18:32.324Z,14.47
2022-09-01T06:19:36.735Z,14.50
2022-09-01T06:20:32.307Z,14.54
2022-09-01T06:21:32.300Z,14.62
2022-09-01T06:22:32.325Z,14.67
2022-09-01T06:23:32.263Z,14.68
2022-09-01T06:24:32.257Z,14.71
2022-09-01T06:25:32.234Z,14.75
2022-09-01T06:26:32.224Z,14.86
2022-09-01T06:27:32.301Z,14.86
2022-09-01T06:28:36.035Z,14.86
2022-09-01T06:29:32.183Z,14.90
2022-09-01T06:30:32.219Z,15.01
2022-09-01T06:31:36.064Z,15.01
2022-09-01T06:32:32.164Z,15.08
2022-09-01T06:33:32.121Z,15.11
2022-09-01T06:34:32.793Z,15.11
2022-09-01T06:35:32.099Z,15.15
2022-09-01T06:36:34.967Z,15.21
2022-09-01T06:37:32.096Z,15.20
2022-09-01T06:38:32.068Z,15.24
2022-09-01T06:39:32.761Z,15.30
2022-09-01T06:40:32.092Z,15.33
2022-09-01T06:41:32.020Z,15.36
2022-09-01T06:42:32.009Z,15.41
2022-09-01T06:43:32.007Z,15.41
2022-09-01T06:44:32.724Z,15.45
2022-09-01T06:45:31.995Z,15.45
2022-09-01T06:46:32.066Z,15.51
2022-09-01T06:47:31.958Z,15.56
2022-09-01T06:48:31.985Z,15.59
2022-09-01T06:49:31.923Z,15.64
2022-09-01T06:51:32.906Z,15.68
2022-09-01T06:53:32.138Z,15.64
2022-09-01T06:53:34.188Z,15.66
2022-09-01T06:54:31.856Z,15.74
2022-09-01T06:55:31.849Z,15.81
2022-09-01T06:56:32.296Z,15.85
2022-09-01T06:58:33.691Z,15.89
2022-09-01T06:59:34.874Z,15.94
2022-09-01T07:00:31.761Z,15.99
2022-09-01T07:01:31.907Z,16.09
2022-09-01T07:02:33.735Z,16.16
2022-09-01T07:03:31.734Z,16.22
2022-09-01T07:08:32.688Z,16.38
2022-09-01T07:09:47.764Z,16.40
2022-09-01T07:10:32.661Z,16.42
2022-09-01T07:12:32.630Z,16.42
2022-09-01T07:13:31.626Z,16.50
2022-09-01T07:14:32.844Z,16.55
2022-09-01T07:16:32.080Z,16.59
2022-09-01T07:16:35.429Z,16.65
2022-09-01T07:17:31.558Z,16.68
2022-09-01T07:18:31.588Z,16.74
2022-09-01T07:20:32.524Z,16.77
2022-09-01T07:21:41.745Z,16.81
2022-09-01T07:22:36.260Z,16.86
2022-09-01T07:23:46.205Z,16.93
2022-09-01T07:24:32.466Z,17.00
2022-09-01T07:26:00.494Z,17.06
2022-09-01T07:26:32.471Z,17.17
2022-09-01T07:27:35.945Z,17.22
2022-09-01T07:28:39.951Z,17.26
2022-09-01T07:29:32.391Z,17.33
2022-09-01T07:30:31.377Z,17.32
2022-09-01T07:32:47.986Z,17.43
2022-09-01T07:33:44.469Z,17.43
2022-09-01T07:34:40.013Z,17.51
2022-09-01T07:35:32.592Z,17.57
2022-09-01T07:36:32.322Z,17.66
2022-09-01T07:38:49.602Z,17.76
2022-09-01T07:41:44.194Z,16.27
2022-09-01T07:42:30.882Z,17.82
2022-09-01T07:43:33.466Z,18.09
2022-09-01T07:44:31.208Z,18.09
2022-09-01T07:45:31.194Z,18.12
2022-09-01T07:46:38.361Z,18.10
2022-09-01T07:49:52.379Z,18.04
2022-09-01T07:51:34.129Z,18.09
2022-09-01T07:51:36.843Z,18.19
2022-09-01T07:52:32.126Z,18.24
2022-09-01T07:53:31.121Z,18.29
2022-09-01T07:54:31.071Z,18.33
2022-09-01T07:55:31.090Z,18.28
2022-09-01T07:56:31.071Z,18.31
2022-09-01T07:57:31.098Z,18.36
2022-09-01T07:58:31.035Z,18.37
2022-09-01T07:59:31.004Z,18.39
2022-09-01T08:00:31.062Z,18.44
2022-09-01T08:01:31.035Z,18.55
2022-09-01T08:02:31.101Z,18.64
2022-09-01T08:03:31.215Z,18.62
2022-09-01T08:04:30.936Z,18.57
2022-09-01T08:05:30.941Z,18.64
2022-09-01T08:06:37.969Z,18.74
2022-09-01T08:07:31.887Z,18.77
2022-09-01T08:08:31.118Z,18.83
2022-09-01T08:09:38.234Z,18.95
2022-09-01T08:10:31.883Z,18.94
2022-09-01T08:12:31.854Z,19.23
2022-09-01T08:13:30.843Z,19.25
2022-09-01T08:14:33.793Z,19.25
2022-09-01T08:15:40.412Z,19.33
2022-09-01T08:16:39.389Z,19.38
2022-09-01T08:17:50.661Z,19.42
2022-09-01T08:18:48.129Z,19.47
2022-09-01T08:19:33.697Z,19.46
2022-09-01T08:20:30.741Z,19.47
2022-09-01T08:21:30.716Z,19.46
2022-09-01T08:22:30.768Z,19.46
2022-09-01T08:23:31.023Z,19.46
2022-09-01T08:24:30.685Z,19.43
2022-09-01T08:25:30.657Z,19.48
2022-09-01T08:26:30.656Z,19.58
2022-09-01T08:27:30.666Z,19.65
2022-09-01T08:28:30.866Z,19.75
2022-09-01T08:29:30.677Z,19.80
2022-09-01T08:30:30.614Z,19.84
2022-09-01T08:31:31.246Z,19.88
2022-09-01T08:32:30.585Z,19.91
2022-09-01T08:33:30.557Z,19.94
2022-09-01T08:34:30.578Z,19.97
2022-09-01T08:35:31.087Z,20.05
2022-09-01T08:36:30.525Z,20.15
2022-09-01T08:37:30.512Z,20.18
2022-09-01T08:38:30.582Z,20.20
2022-09-01T08:39:30.471Z,20.16
2022-09-01T08:40:30.510Z,20.23
2022-09-01T08:41:35.206Z,20.23
2022-09-01T08:42:32.807Z,20.28
2022-09-01T08:43:30.453Z,20.35
2022-09-01T08:44:30.435Z,20.43
2022-09-01T08:45:30.406Z,20.58
2022-09-01T08:46:30.542Z,20.61
2022-09-01T08:47:43.715Z,20.62
2022-09-01T08:49:42.196Z,20.79
2022-09-01T08:50:31.353Z,20.74
2022-09-01T08:51:30.530Z,20.74
2022-09-01T08:52:30.363Z,20.80
2022-09-01T08:53:32.653Z,20.87
2022-09-01T08:54:31.897Z,20.86
2022-09-01T08:55:30.283Z,20.91
2022-09-01T08:56:30.274Z,20.96
2022-09-01T08:57:30.261Z,20.99
2022-09-01T08:58:30.232Z,21.09
2022-09-01T08:59:30.296Z,21.06
2022-09-01T09:00:30.233Z,21.09
2022-09-01T09:01:30.520Z,21.29
2022-09-01T09:02:30.230Z,21.41
2022-09-01T09:03:40.532Z,21.53
2022-09-01T09:04:31.165Z,21.54
2022-09-01T09:05:30.143Z,21.53
2022-09-01T09:06:30.131Z,21.45
2022-09-01T09:07:30.841Z,21.57
2022-09-01T09:08:33.545Z,21.71
2022-09-01T09:09:34.128Z,21.66
2022-09-01T09:10:30.074Z,21.54
2022-09-01T09:11:30.176Z,21.35
2022-09-01T09:12:30.060Z,21.24
2022-09-01T09:13:30.076Z,21.44
2022-09-01T09:14:30.091Z,21.46
2022-09-01T09:15:30.095Z,21.53
2022-09-01T09:16:30.113Z,21.63
2022-09-01T09:17:29.998Z,21.74
2022-09-01T09:18:39.954Z,21.78
2022-09-01T09:19:30.962Z,21.79
2022-09-01T09:20:30.028Z,21.74
2022-09-01T09:21:30.394Z,21.72
2022-09-01T09:22:29.995Z,21.76
2022-09-01T09:23:29.911Z,21.98
2022-09-01T09:24:39.308Z,22.07
2022-09-01T09:25:30.885Z,22.16
2022-09-01T09:26:42.244Z,22.34
2022-09-01T09:27:31.113Z,22.47
2022-09-01T09:28:29.877Z,22.17
2022-09-01T09:29:30.058Z,21.98
2022-09-01T09:30:29.822Z,22.14
2022-09-01T09:31:29.886Z,22.23
2022-09-01T09:32:50.510Z,22.31
2022-09-01T09:33:49.817Z,22.29
2022-09-01T09:34:30.794Z,22.44
2022-09-01T09:35:29.811Z,22.44
2022-09-01T09:36:29.815Z,22.46
2022-09-01T09:37:29.750Z,22.38
2022-09-01T09:38:29.729Z,22.57
2022-09-01T09:39:29.945Z,22.75
2022-09-01T09:40:29.828Z,22.87
2022-09-01T09:41:29.846Z,22.99
2022-09-01T09:42:34.737Z,23.02
2022-09-01T09:43:30.638Z,23.11
2022-09-01T09:44:29.698Z,23.24
2022-09-01T09:45:29.627Z,23.26
2022-09-01T09:46:29.664Z,23.19
2022-09-01T09:47:43.031Z,23.09
2022-09-01T09:48:30.612Z,22.92
2022-09-01T09:49:35.898Z,22.93
2022-09-01T09:50:30.581Z,22.96
2022-09-01T09:51:29.673Z,23.12
2022-09-01T09:52:29.767Z,23.32
2022-09-01T09:53:29.527Z,23.55
2022-09-01T09:54:29.508Z,23.71
2022-09-01T09:55:29.518Z,23.85
2022-09-01T09:56:29.544Z,23.87
2022-09-01T09:57:29.500Z,23.79
2022-09-01T09:58:29.487Z,23.79
2022-09-01T09:59:56.580Z,23.72
2022-09-01T10:00:30.440Z,23.86
2022-09-01T10:01:33.309Z,23.94
2022-09-01T10:02:29.416Z,23.68
2022-09-01T10:03:29.396Z,23.24
2022-09-01T10:04:29.426Z,22.96
2022-09-01T10:05:30.183Z,23.07
2022-09-01T10:06:29.353Z,23.09
2022-09-01T10:07:29.416Z,23.14
2022-09-01T10:08:29.380Z,23.27
2022-09-01T10:09:29.383Z,23.50
2022-09-01T10:10:29.329Z,23.68
2022-09-01T10:11:33.438Z,23.53
2022-09-01T10:12:30.307Z,23.47
2022-09-01T10:13:29.260Z,23.58
2022-09-01T10:14:51.832Z,23.76
2022-09-01T10:15:30.293Z,23.92
2022-09-01T10:16:32.034Z,24.01
2022-09-01T10:17:29.419Z,24.05
2022-09-01T10:18:29.771Z,24.05
2022-09-01T10:19:32.348Z,24.12
2022-09-01T10:20:30.175Z,24.19
2022-09-01T10:21:29.191Z,24.37
2022-09-01T10:22:29.133Z,24.60
2022-09-01T10:23:31.369Z,24.42
2022-09-01T10:24:30.924Z,24.05
2022-09-01T10:25:29.623Z,23.75
2022-09-01T10:26:29.086Z,23.68
2022-09-01T10:27:29.163Z,23.90
2022-09-01T10:28:29.068Z,24.12
2022-09-01T10:29:35.081Z,24.35
2022-09-01T10:30:30.150Z,24.57
2022-09-01T10:31:32.217Z,24.67
2022-09-01T10:32:36.659Z,24.69
2022-09-01T10:33:30.022Z,24.73
2022-09-01T10:34:29.006Z,24.68
2022-09-01T10:35:28.980Z,24.60
2022-09-01T10:36:28.959Z,24.41
2022-09-01T10:37:28.966Z,24.13
2022-09-01T10:38:29.039Z,24.16
2022-09-01T10:39:30.966Z,24.19
2022-09-01T10:40:32.016Z,24.37
2022-09-01T10:41:28.913Z,24.13
2022-09-01T10:42:29.135Z,24.08
2022-09-01T10:43:29.380Z,24.17
2022-09-01T10:44:31.360Z,24.32
2022-09-01T10:45:28.840Z,24.29
2022-09-01T10:46:38.776Z,24.32
2022-09-01T10:47:29.886Z,24.31
2022-09-01T10:48:30.833Z,24.38
2022-09-01T10:49:29.662Z,24.38
2022-09-01T10:50:29.508Z,24.42
2022-09-01T10:51:36.255Z,24.31
2022-09-01T10:52:29.783Z,24.16
2022-09-01T10:53:28.768Z,24.02
2022-09-01T10:54:28.818Z,24.16
2022-09-01T10:55:28.748Z,24.44
2022-09-01T10:56:35.549Z,24.68
2022-09-01T10:57:30.617Z,24.88
2022-09-01T10:59:32.049Z,25.09
2022-09-01T11:00:36.638Z,25.01
2022-09-01T11:01:47.780Z,24.95
2022-09-01T11:02:35.796Z,24.95
2022-09-01T11:03:30.643Z,25.01
2022-09-01T11:04:28.737Z,25.07
2022-09-01T11:05:33.126Z,25.22
2022-09-01T11:06:33.177Z,25.42
2022-09-01T11:07:50.319Z,25.61
2022-09-01T11:08:29.870Z,25.67
2022-09-01T11:09:28.567Z,25.62
2022-09-01T11:10:33.231Z,25.43
2022-09-01T11:11:29.626Z,25.47
2022-09-01T11:12:29.930Z,25.54
2022-09-01T11:13:28.549Z,25.27
2022-09-01T11:14:28.603Z,24.79
2022-09-01T11:15:28.553Z,24.47
2022-09-01T11:17:29.628Z,24.59
2022-09-01T11:18:28.416Z,24.77
2022-09-01T11:19:28.468Z,25.06
2022-09-01T11:20:28.395Z,25.28
2022-09-01T11:21:28.382Z,25.06
2022-09-01T11:22:28.489Z,25.27
2022-09-01T11:23:28.393Z,25.42
2022-09-01T11:24:28.459Z,25.47
2022-09-01T11:25:38.712Z,25.50
2022-09-01T11:26:29.345Z,25.54
2022-09-01T11:27:28.319Z,25.32
2022-09-01T11:28:28.440Z,25.37
2022-09-01T11:29:28.282Z,25.38
2022-09-01T11:30:29.227Z,25.42
2022-09-01T11:31:28.401Z,25.42
2022-09-01T11:32:28.369Z,25.50
2022-09-01T11:33:28.242Z,25.54
2022-09-01T11:34:28.297Z,25.62
2022-09-01T11:35:28.276Z,25.67
2022-09-01T11:36:28.195Z,25.67
2022-09-01T11:37:28.198Z,25.93
2022-09-01T11:38:28.205Z,25.87
2022-09-01T11:39:28.319Z,25.46
2022-09-01T11:40:29.723Z,24.97
2022-09-01T11:41:28.185Z,24.98
2022-09-01T11:42:28.125Z,25.30
2022-09-01T11:43:28.109Z,25.46
2022-09-01T11:44:28.113Z,25.59
2022-09-01T11:45:28.156Z,25.68
2022-09-01T11:46:28.205Z,25.80
2022-09-01T11:47:28.083Z,25.94
2022-09-01T11:48:28.065Z,25.93
2022-09-01T11:49:28.077Z,25.61
2022-09-01T11:50:28.052Z,25.69
2022-09-01T11:51:28.022Z,26.02
2022-09-01T11:52:28.014Z,26.09
2022-09-01T11:53:28.105Z,26.32
2022-09-01T11:54:27.969Z,26.50
2022-09-01T11:55:27.995Z,26.68
2022-09-01T11:56:27.960Z,26.92
2022-09-01T11:57:27.949Z,26.72
2022-09-01T11:58:28.618Z,26.72
2022-09-01T11:59:29.061Z,26.67
2022-09-01T12:00:27.891Z,26.54
2022-09-01T12:01:27.933Z,26.58
2022-09-01T12:02:27.904Z,26.68
2022-09-01T12:03:27.907Z,26.72
2022-09-01T12:04:28.024Z,26.79
2022-09-01T12:05:27.892Z,26.81
2022-09-01T12:06:27.884Z,26.79
2022-09-01T12:07:28.100Z,26.67
2022-09-01T12:08:27.823Z,26.64
2022-09-01T12:09:27.775Z,26.43
2022-09-01T12:10:27.768Z,26.44
2022-09-01T12:11:27.794Z,26.80
2022-09-01T12:12:27.767Z,26.94
2022-09-01T12:13:27.733Z,27.13
2022-09-01T12:14:35.231Z,27.06
2022-09-01T12:15:28.735Z,26.72
2022-09-01T12:16:27.723Z,26.44
2022-09-01T12:17:27.698Z,25.97
2022-09-01T12:18:27.662Z,25.98
2022-09-01T12:19:27.665Z,26.11
2022-09-01T12:20:29.417Z,26.35
2022-09-01T12:21:27.646Z,26.37
2022-09-01T12:22:27.735Z,25.98
2022-09-01T12:23:27.691Z,25.57
2022-09-01T12:24:27.596Z,25.35
2022-09-01T12:25:27.575Z,25.53
2022-09-01T12:26:27.562Z,25.84
2022-09-01T12:27:28.282Z,26.02
2022-09-01T12:28:30.427Z,26.44
2022-09-01T12:29:31.493Z,26.68
2022-09-01T12:30:27.510Z,26.81
2022-09-01T12:31:31.451Z,27.29
2022-09-01T12:32:27.501Z,27.64
2022-09-01T12:33:27.749Z,27.36
2022-09-01T12:34:27.477Z,27.58
2022-09-01T12:35:27.455Z,27.76
2022-09-01T12:36:27.435Z,27.62
2022-09-01T12:37:27.460Z,26.95
2022-09-01T12:38:27.441Z,26.49
2022-09-01T12:39:27.480Z,25.37
2022-09-01T12:40:27.466Z,25.62
2022-09-01T12:41:28.981Z,26.62
2022-09-01T12:42:27.398Z,27.39
2022-09-01T12:43:27.655Z,27.61
2022-09-01T12:44:27.355Z,28.01
2022-09-01T12:45:27.434Z,28.03
2022-09-01T12:46:27.349Z,27.76
2022-09-01T12:47:27.319Z,27.74
2022-09-01T12:48:27.308Z,27.74
2022-09-01T12:49:28.802Z,27.58
2022-09-01T12:50:29.439Z,27.21
2022-09-01T12:51:31.444Z,26.72
2022-09-01T12:52:27.501Z,26.32
2022-09-01T12:53:27.900Z,26.17
2022-09-01T12:54:27.276Z,25.83
2022-09-01T12:56:28.192Z,25.16
2022-09-01T12:57:27.213Z,25.10
2022-09-01T12:58:27.184Z,25.07
2022-09-01T12:59:36.182Z,25.01
2022-09-01T13:00:28.147Z,24.95
2022-09-01T13:01:27.288Z,24.76
2022-09-01T13:02:27.238Z,24.77
2022-09-01T13:03:27.190Z,25.34
2022-09-01T13:04:27.089Z,25.91
2022-09-01T13:05:31.145Z,26.49
2022-09-01T13:06:28.069Z,27.13
2022-09-01T13:07:27.116Z,27.41
2022-09-01T13:08:27.320Z,27.69
2022-09-01T13:09:27.087Z,27.96
2022-09-01T13:10:27.021Z,28.36
2022-09-01T13:12:05.837Z,28.87
2022-09-01T13:12:28.012Z,28.88